sensor_id;sensor_type;location;lat;lon;timestamp;temperature;humidity
19552;DHT22;9921;47.186;9.778;2023-03-15T00:00:30;5.50;99.90
19552;DHT22;9921;47.186;9.778;2023-03-15T00:02:57;5.50;99.90
19552;DHT22;9921;47.186;9.778;2023-03-15T00:05:23;5.50;99.90
19552;DHT22;9921;47.186;9.778;2023-03-15T00:07:50;5.50;99.90
19552;DHT22;9921;47.186;9.778;2023-03-15T00:10:18;5.60;99.90
19552;DHT22;9921;47.186;9.778;2023-03-15T00:12:44;5.70;99.90
19552;DHT22;9921;47.186;9.778;2023-03-15T00:15:13;5.90;99.90
19552;DHT22;9921;47.186;9.778;2023-03-15T00:17:40;6.00;99.90
19552;DHT22;9921;47.186;9.778;2023-03-15T00:20:10;6.10;99.90
19552;DHT22;9921;47.186;9.778;2023-03-15T00:22:39;6.20;99.90
19552;DHT22;9921;47.186;9.778;2023-03-15T00:25:06;6.30;99.90
19552;DHT22;9921;47.186;9.778;2023-03-15T00:27:33;6.40;99.90
19552;DHT22;9921;47.186;9.778;2023-03-15T00:30:00;6.40;99.90
19552;DHT22;9921;47.186;9.778;2023-03-15T00:32:28;6.40;99.90
19552;DHT22;9921;47.186;9.778;2023-03-15T00:34:56;6.40;99.90
19552;DHT22;9921;47.186;9.778;2023-03-15T00:37:23;6.50;99.90
19552;DHT22;9921;47.186;9.778;2023-03-15T00:39:51;6.40;99.90
19552;DHT22;9921;47.186;9.778;2023-03-15T00:42:20;6.50;99.90
19552;DHT22;9921;47.186;9.778;2023-03-15T00:44:52;6.50;99.90
19552;DHT22;9921;47.186;9.778;2023-03-15T00:47:20;6.50;99.90
19552;DHT22;9921;47.186;9.778;2023-03-15T00:49:48;6.50;99.90
19552;DHT22;9921;47.186;9.778;2023-03-15T00:52:16;6.50;99.90
19552;DHT22;9921;47.186;9.778;2023-03-15T00:54:43;6.40;99.90
19552;DHT22;9921;47.186;9.778;2023-03-15T00:57:10;6.30;99.90
19552;DHT22;9921;47.186;9.778;2023-03-15T00:59:37;6.20;99.90
19552;DHT22;9921;47.186;9.778;2023-03-15T01:02:04;6.00;99.90
19552;DHT22;9921;47.186;9.778;2023-03-15T01:04:31;5.90;99.90
19552;DHT22;9921;47.186;9.778;2023-03-15T01:06:59;5.90;99.90
19552;DHT22;9921;47.186;9.778;2023-03-15T01:09:27;5.80;99.90
19552;DHT22;9921;47.186;9.778;2023-03-15T01:11:55;5.90;99.90
19552;DHT22;9921;47.186;9.778;2023-03-15T01:14:21;5.90;99.90
19552;DHT22;9921;47.186;9.778;2023-03-15T01:16:48;5.90;99.90
19552;DHT22;9921;47.186;9.778;2023-03-15T01:19:15;5.90;99.90
19552;DHT22;9921;47.186;9.778;2023-03-15T01:21:42;5.90;99.90
19552;DHT22;9921;47.186;9.778;2023-03-15T01:24:14;6.00;99.90
19552;DHT22;9921;47.186;9.778;2023-03-15T01:26:41;5.90;99.90
19552;DHT22;9921;47.186;9.778;2023-03-15T01:29:07;5.50;99.90
19552;DHT22;9921;47.186;9.778;2023-03-15T01:31:34;5.10;99.90
19552;DHT22;9921;47.186;9.778;2023-03-15T01:34:01;5.00;99.90
19552;DHT22;9921;47.186;9.778;2023-03-15T01:36:28;4.90;99.90
19552;DHT22;9921;47.186;9.778;2023-03-15T01:38:56;5.00;99.90
19552;DHT22;9921;47.186;9.778;2023-03-15T01:41:25;4.90;99.90
19552;DHT22;9921;47.186;9.778;2023-03-15T01:43:52;4.90;99.90
19552;DHT22;9921;47.186;9.778;2023-03-15T01:46:27;4.80;99.90
19552;DHT22;9921;47.186;9.778;2023-03-15T01:48:58;4.70;99.90
19552;DHT22;9921;47.186;9.778;2023-03-15T01:51:31;4.70;99.90
19552;DHT22;9921;47.186;9.778;2023-03-15T01:54:01;4.80;99.90
19552;DHT22;9921;47.186;9.778;2023-03-15T01:56:32;4.80;99.90
19552;DHT22;9921;47.186;9.778;2023-03-15T01:59:02;4.80;99.90
19552;DHT22;9921;47.186;9.778;2023-03-15T02:01:30;4.80;99.90
19552;DHT22;9921;47.186;9.778;2023-03-15T02:04:01;5.00;99.90
19552;DHT22;9921;47.186;9.778;2023-03-15T02:06:29;4.90;99.90
19552;DHT22;9921;47.186;9.778;2023-03-15T02:09:03;4.90;99.90
19552;DHT22;9921;47.186;9.778;2023-03-15T02:11:34;5.00;99.90
19552;DHT22;9921;47.186;9.778;2023-03-15T02:14:04;5.00;99.90
19552;DHT22;9921;47.186;9.778;2023-03-15T02:16:31;5.00;99.90
19552;DHT22;9921;47.186;9.778;2023-03-15T02:18:58;4.70;99.90
19552;DHT22;9921;47.186;9.778;2023-03-15T02:21:35;4.70;99.90
19552;DHT22;9921;47.186;9.778;2023-03-15T02:24:11;4.80;99.90
19552;DHT22;9921;47.186;9.778;2023-03-15T02:26:45;4.90;99.90
19552;DHT22;9921;47.186;9.778;2023-03-15T02:29:15;4.70;99.90
19552;DHT22;9921;47.186;9.778;2023-03-15T02:31:42;4.70;99.90
19552;DHT22;9921;47.186;9.778;2023-03-15T02:34:10;4.80;99.90
19552;DHT22;9921;47.186;9.778;2023-03-15T02:36:37;4.60;99.90
19552;DHT22;9921;47.186;9.778;2023-03-15T02:39:13;4.60;99.90
19552;DHT22;9921;47.186;9.778;2023-03-15T02:41:42;4.70;99.90
19552;DHT22;9921;47.186;9.778;2023-03-15T02:44:13;4.70;99.90
19552;DHT22;9921;47.186;9.778;2023-03-15T02:46:43;4.70;99.90
19552;DHT22;9921;47.186;9.778;2023-03-15T02:49:12;4.70;99.90
19552;DHT22;9921;47.186;9.778;2023-03-15T02:51:41;4.60;99.90
19552;DHT22;9921;47.186;9.778;2023-03-15T02:54:08;4.50;99.90
19552;DHT22;9921;47.186;9.778;2023-03-15T02:56:35;4.50;99.90
19552;DHT22;9921;47.186;9.778;2023-03-15T02:59:02;4.50;99.90
19552;DHT22;9921;47.186;9.778;2023-03-15T03:01:29;4.50;99.90
19552;DHT22;9921;47.186;9.778;2023-03-15T03:03:57;4.60;99.90
19552;DHT22;9921;47.186;9.778;2023-03-15T03:06:24;4.60;99.90
19552;DHT22;9921;47.186;9.778;2023-03-15T03:08:51;4.60;99.90
19552;DHT22;9921;47.186;9.778;2023-03-15T03:11:17;4.60;99.90
19552;DHT22;9921;47.186;9.778;2023-03-15T03:13:44;4.50;99.90
19552;DHT22;9921;47.186;9.778;2023-03-15T03:16:11;4.50;99.90
19552;DHT22;9921;47.186;9.778;2023-03-15T03:18:38;4.40;99.90
19552;DHT22;9921;47.186;9.778;2023-03-15T03:21:08;4.40;99.90
19552;DHT22;9921;47.186;9.778;2023-03-15T03:23:35;4.30;99.90
19552;DHT22;9921;47.186;9.778;2023-03-15T03:26:02;4.30;99.90
19552;DHT22;9921;47.186;9.778;2023-03-15T03:28:31;4.30;99.90
19552;DHT22;9921;47.186;9.778;2023-03-15T03:30:58;4.30;99.90
19552;DHT22;9921;47.186;9.778;2023-03-15T03:33:25;4.20;99.90
19552;DHT22;9921;47.186;9.778;2023-03-15T03:35:52;4.20;99.90
19552;DHT22;9921;47.186;9.778;2023-03-15T03:38:20;4.00;99.90
19552;DHT22;9921;47.186;9.778;2023-03-15T03:40:47;4.00;99.90
19552;DHT22;9921;47.186;9.778;2023-03-15T03:43:14;3.90;99.90
19552;DHT22;9921;47.186;9.778;2023-03-15T03:45:41;4.00;99.90
19552;DHT22;9921;47.186;9.778;2023-03-15T03:48:08;4.10;99.90
19552;DHT22;9921;47.186;9.778;2023-03-15T03:50:35;4.10;99.90
19552;DHT22;9921;47.186;9.778;2023-03-15T03:53:01;4.00;99.90
19552;DHT22;9921;47.186;9.778;2023-03-15T03:55:30;4.00;99.90
19552;DHT22;9921;47.186;9.778;2023-03-15T03:57:58;4.00;99.90
19552;DHT22;9921;47.186;9.778;2023-03-15T04:00:25;4.00;99.90
19552;DHT22;9921;47.186;9.778;2023-03-15T04:02:52;4.00;99.90
19552;DHT22;9921;47.186;9.778;2023-03-15T04:05:19;3.90;99.90
19552;DHT22;9921;47.186;9.778;2023-03-15T04:07:46;3.90;99.90
19552;DHT22;9921;47.186;9.778;2023-03-15T04:10:13;3.90;99.90
19552;DHT22;9921;47.186;9.778;2023-03-15T04:12:42;3.90;99.90
19552;DHT22;9921;47.186;9.778;2023-03-15T04:15:09;3.90;99.90
19552;DHT22;9921;47.186;9.778;2023-03-15T04:17:37;3.80;99.90
19552;DHT22;9921;47.186;9.778;2023-03-15T04:20:05;3.70;99.90
19552;DHT22;9921;47.186;9.778;2023-03-15T04:22:33;3.50;99.90
19552;DHT22;9921;47.186;9.778;2023-03-15T04:25:00;3.30;99.90
19552;DHT22;9921;47.186;9.778;2023-03-15T04:27:27;3.20;99.90
19552;DHT22;9921;47.186;9.778;2023-03-15T04:29:56;3.10;99.90
19552;DHT22;9921;47.186;9.778;2023-03-15T04:32:22;3.00;99.90
19552;DHT22;9921;47.186;9.778;2023-03-15T04:34:49;3.00;99.90
19552;DHT22;9921;47.186;9.778;2023-03-15T04:37:16;3.00;99.90
19552;DHT22;9921;47.186;9.778;2023-03-15T04:39:43;2.90;99.90
19552;DHT22;9921;47.186;9.778;2023-03-15T04:42:10;3.00;99.90
19552;DHT22;9921;47.186;9.778;2023-03-15T04:44:37;3.00;99.90
19552;DHT22;9921;47.186;9.778;2023-03-15T04:47:06;3.00;99.90
19552;DHT22;9921;47.186;9.778;2023-03-15T04:49:32;3.10;99.90
19552;DHT22;9921;47.186;9.778;2023-03-15T04:51:59;3.10;99.90
19552;DHT22;9921;47.186;9.778;2023-03-15T04:54:26;3.20;99.90
19552;DHT22;9921;47.186;9.778;2023-03-15T04:56:53;3.20;99.90
19552;DHT22;9921;47.186;9.778;2023-03-15T04:59:20;3.20;99.90
19552;DHT22;9921;47.186;9.778;2023-03-15T05:01:47;3.30;99.90
19552;DHT22;9921;47.186;9.778;2023-03-15T05:04:15;3.40;99.90
19552;DHT22;9921;47.186;9.778;2023-03-15T05:06:42;3.50;99.90
19552;DHT22;9921;47.186;9.778;2023-03-15T05:09:09;3.50;99.90
19552;DHT22;9921;47.186;9.778;2023-03-15T05:11:44;3.50;99.90
19552;DHT22;9921;47.186;9.778;2023-03-15T05:14:11;3.60;99.90
19552;DHT22;9921;47.186;9.778;2023-03-15T05:16:37;3.60;99.90
19552;DHT22;9921;47.186;9.778;2023-03-15T05:19:05;3.60;99.90
19552;DHT22;9921;47.186;9.778;2023-03-15T05:21:33;3.60;99.90
19552;DHT22;9921;47.186;9.778;2023-03-15T05:24:00;3.60;99.90
19552;DHT22;9921;47.186;9.778;2023-03-15T05:26:26;3.60;99.90
19552;DHT22;9921;47.186;9.778;2023-03-15T05:28:53;3.60;99.90
19552;DHT22;9921;47.186;9.778;2023-03-15T05:31:20;3.60;99.90
19552;DHT22;9921;47.186;9.778;2023-03-15T05:33:47;3.60;99.90
19552;DHT22;9921;47.186;9.778;2023-03-15T05:36:14;3.70;99.90
19552;DHT22;9921;47.186;9.778;2023-03-15T05:38:43;3.70;99.90
19552;DHT22;9921;47.186;9.778;2023-03-15T05:41:10;3.70;99.90
19552;DHT22;9921;47.186;9.778;2023-03-15T05:43:37;3.80;99.90
19552;DHT22;9921;47.186;9.778;2023-03-15T05:46:04;3.80;99.90
19552;DHT22;9921;47.186;9.778;2023-03-15T05:48:30;3.90;99.90
19552;DHT22;9921;47.186;9.778;2023-03-15T05:50:58;3.90;99.90
19552;DHT22;9921;47.186;9.778;2023-03-15T05:53:25;3.90;99.90
19552;DHT22;9921;47.186;9.778;2023-03-15T05:55:53;4.10;99.90
19552;DHT22;9921;47.186;9.778;2023-03-15T05:58:20;4.10;99.90
19552;DHT22;9921;47.186;9.778;2023-03-15T06:00:46;4.10;99.90
19552;DHT22;9921;47.186;9.778;2023-03-15T06:03:13;4.10;99.90
19552;DHT22;9921;47.186;9.778;2023-03-15T06:05:41;4.10;99.90
19552;DHT22;9921;47.186;9.778;2023-03-15T06:08:08;4.00;99.90
19552;DHT22;9921;47.186;9.778;2023-03-15T06:10:35;4.10;99.90
19552;DHT22;9921;47.186;9.778;2023-03-15T06:13:03;4.00;99.90
19552;DHT22;9921;47.186;9.778;2023-03-15T06:15:31;3.90;99.90
19552;DHT22;9921;47.186;9.778;2023-03-15T06:17:58;4.00;99.90
19552;DHT22;9921;47.186;9.778;2023-03-15T06:20:25;4.00;99.90
19552;DHT22;9921;47.186;9.778;2023-03-15T06:22:52;4.10;99.90
19552;DHT22;9921;47.186;9.778;2023-03-15T06:25:19;4.10;99.90
19552;DHT22;9921;47.186;9.778;2023-03-15T06:27:46;4.20;99.90
19552;DHT22;9921;47.186;9.778;2023-03-15T06:30:15;4.30;99.90
19552;DHT22;9921;47.186;9.778;2023-03-15T06:32:42;4.30;99.90
19552;DHT22;9921;47.186;9.778;2023-03-15T06:35:08;4.30;99.90
19552;DHT22;9921;47.186;9.778;2023-03-15T06:37:35;4.10;99.90
19552;DHT22;9921;47.186;9.778;2023-03-15T06:40:03;4.10;99.90
19552;DHT22;9921;47.186;9.778;2023-03-15T06:42:33;4.10;99.90
19552;DHT22;9921;47.186;9.778;2023-03-15T06:45:00;4.10;99.90
19552;DHT22;9921;47.186;9.778;2023-03-15T06:47:29;4.10;99.90
19552;DHT22;9921;47.186;9.778;2023-03-15T06:49:56;4.10;99.90
19552;DHT22;9921;47.186;9.778;2023-03-15T06:52:23;4.10;99.90
19552;DHT22;9921;47.186;9.778;2023-03-15T06:54:49;4.00;99.90
19552;DHT22;9921;47.186;9.778;2023-03-15T06:57:16;3.90;99.90
19552;DHT22;9921;47.186;9.778;2023-03-15T06:59:44;4.00;99.90
19552;DHT22;9921;47.186;9.778;2023-03-15T07:02:13;4.10;99.90
19552;DHT22;9921;47.186;9.778;2023-03-15T07:04:42;4.20;99.90
19552;DHT22;9921;47.186;9.778;2023-03-15T07:07:10;4.10;99.90
19552;DHT22;9921;47.186;9.778;2023-03-15T07:09:36;4.20;99.90
19552;DHT22;9921;47.186;9.778;2023-03-15T07:12:04;4.30;99.90
19552;DHT22;9921;47.186;9.778;2023-03-15T07:14:32;4.40;99.90
19552;DHT22;9921;47.186;9.778;2023-03-15T07:16:59;4.60;99.90
19552;DHT22;9921;47.186;9.778;2023-03-15T07:19:26;4.70;99.90
19552;DHT22;9921;47.186;9.778;2023-03-15T07:21:54;4.70;99.90
19552;DHT22;9921;47.186;9.778;2023-03-15T07:24:21;4.90;99.90
19552;DHT22;9921;47.186;9.778;2023-03-15T07:26:48;5.00;99.90
19552;DHT22;9921;47.186;9.778;2023-03-15T07:29:19;5.20;99.90
19552;DHT22;9921;47.186;9.778;2023-03-15T07:31:46;5.20;99.90
19552;DHT22;9921;47.186;9.778;2023-03-15T07:34:12;5.30;99.90
19552;DHT22;9921;47.186;9.778;2023-03-15T07:36:39;5.30;99.90
19552;DHT22;9921;47.186;9.778;2023-03-15T07:39:07;5.30;99.90
19552;DHT22;9921;47.186;9.778;2023-03-15T07:41:34;5.40;99.90
19552;DHT22;9921;47.186;9.778;2023-03-15T07:44:01;5.50;99.90
19552;DHT22;9921;47.186;9.778;2023-03-15T07:46:28;5.50;99.90
19552;DHT22;9921;47.186;9.778;2023-03-15T07:48:55;5.70;99.90
19552;DHT22;9921;47.186;9.778;2023-03-15T07:51:22;6.00;99.90
19552;DHT22;9921;47.186;9.778;2023-03-15T07:53:49;6.50;99.90
19552;DHT22;9921;47.186;9.778;2023-03-15T07:56:17;6.90;99.90
19552;DHT22;9921;47.186;9.778;2023-03-15T07:58:44;7.90;99.90
19552;DHT22;9921;47.186;9.778;2023-03-15T08:01:11;8.70;99.90
19552;DHT22;9921;47.186;9.778;2023-03-15T08:03:38;9.40;99.90
19552;DHT22;9921;47.186;9.778;2023-03-15T08:06:06;9.80;99.90
19552;DHT22;9921;47.186;9.778;2023-03-15T08:08:33;10.00;99.90
19552;DHT22;9921;47.186;9.778;2023-03-15T08:11:00;9.70;99.90
19552;DHT22;9921;47.186;9.778;2023-03-15T08:13:28;9.60;99.90
19552;DHT22;9921;47.186;9.778;2023-03-15T08:15:55;9.80;99.90
19552;DHT22;9921;47.186;9.778;2023-03-15T08:18:22;9.40;99.90
19552;DHT22;9921;47.186;9.778;2023-03-15T08:20:49;9.40;99.90
19552;DHT22;9921;47.186;9.778;2023-03-15T08:23:16;9.20;99.90
19552;DHT22;9921;47.186;9.778;2023-03-15T08:25:43;9.00;99.90
19552;DHT22;9921;47.186;9.778;2023-03-15T08:28:11;8.20;99.90
19552;DHT22;9921;47.186;9.778;2023-03-15T08:30:39;7.90;99.90
19552;DHT22;9921;47.186;9.778;2023-03-15T08:33:06;7.90;99.90
19552;DHT22;9921;47.186;9.778;2023-03-15T08:35:34;8.20;99.90
19552;DHT22;9921;47.186;9.778;2023-03-15T08:38:01;8.20;99.90
19552;DHT22;9921;47.186;9.778;2023-03-15T08:40:29;8.20;99.90
19552;DHT22;9921;47.186;9.778;2023-03-15T08:42:56;8.10;99.90
19552;DHT22;9921;47.186;9.778;2023-03-15T08:45:24;8.20;99.90
19552;DHT22;9921;47.186;9.778;2023-03-15T08:47:55;8.30;99.90
19552;DHT22;9921;47.186;9.778;2023-03-15T08:50:22;8.50;99.90
19552;DHT22;9921;47.186;9.778;2023-03-15T08:52:49;8.20;99.90
19552;DHT22;9921;47.186;9.778;2023-03-15T08:55:16;8.00;99.90
19552;DHT22;9921;47.186;9.778;2023-03-15T08:57:43;8.30;99.90
19552;DHT22;9921;47.186;9.778;2023-03-15T09:00:11;8.20;99.90
19552;DHT22;9921;47.186;9.778;2023-03-15T09:02:42;8.10;99.90
19552;DHT22;9921;47.186;9.778;2023-03-15T09:05:10;8.10;99.90
19552;DHT22;9921;47.186;9.778;2023-03-15T09:07:38;8.20;99.90
19552;DHT22;9921;47.186;9.778;2023-03-15T09:10:07;8.40;99.90
19552;DHT22;9921;47.186;9.778;2023-03-15T09:12:34;8.70;99.90
19552;DHT22;9921;47.186;9.778;2023-03-15T09:15:01;8.90;99.90
19552;DHT22;9921;47.186;9.778;2023-03-15T09:17:28;9.20;99.90
19552;DHT22;9921;47.186;9.778;2023-03-15T09:19:55;9.00;99.90
19552;DHT22;9921;47.186;9.778;2023-03-15T09:22:23;8.90;99.90
19552;DHT22;9921;47.186;9.778;2023-03-15T09:24:50;8.90;99.90
19552;DHT22;9921;47.186;9.778;2023-03-15T09:27:17;9.00;99.90
19552;DHT22;9921;47.186;9.778;2023-03-15T09:29:44;9.40;99.90
19552;DHT22;9921;47.186;9.778;2023-03-15T09:32:11;10.70;99.90
19552;DHT22;9921;47.186;9.778;2023-03-15T09:34:38;12.00;99.90
19552;DHT22;9921;47.186;9.778;2023-03-15T09:37:05;13.30;99.90
19552;DHT22;9921;47.186;9.778;2023-03-15T09:39:33;15.00;99.90
19552;DHT22;9921;47.186;9.778;2023-03-15T09:42:01;17.10;99.90
19552;DHT22;9921;47.186;9.778;2023-03-15T09:44:40;18.10;93.40
19552;DHT22;9921;47.186;9.778;2023-03-15T09:47:18;17.40;90.00
19552;DHT22;9921;47.186;9.778;2023-03-15T09:49:49;18.10;88.10
19552;DHT22;9921;47.186;9.778;2023-03-15T09:52:25;19.80;84.50
19552;DHT22;9921;47.186;9.778;2023-03-15T09:54:58;21.00;78.00
19552;DHT22;9921;47.186;9.778;2023-03-15T09:57:34;21.80;76.90
19552;DHT22;9921;47.186;9.778;2023-03-15T10:00:04;23.20;68.50
19552;DHT22;9921;47.186;9.778;2023-03-15T10:02:36;24.20;63.30
19552;DHT22;9921;47.186;9.778;2023-03-15T10:05:12;24.80;54.10
19552;DHT22;9921;47.186;9.778;2023-03-15T10:07:41;25.50;56.60
19552;DHT22;9921;47.186;9.778;2023-03-15T10:10:17;25.90;49.80
19552;DHT22;9921;47.186;9.778;2023-03-15T10:12:50;26.30;48.80
19552;DHT22;9921;47.186;9.778;2023-03-15T10:15:25;25.60;45.10
19552;DHT22;9921;47.186;9.778;2023-03-15T10:18:09;24.10;47.40
19552;DHT22;9921;47.186;9.778;2023-03-15T10:20:44;23.00;48.60
19552;DHT22;9921;47.186;9.778;2023-03-15T10:23:15;23.00;51.10
19552;DHT22;9921;47.186;9.778;2023-03-15T10:25:45;23.30;52.00
19552;DHT22;9921;47.186;9.778;2023-03-15T10:28:22;22.40;49.50
19552;DHT22;9921;47.186;9.778;2023-03-15T10:30:50;22.40;49.20
19552;DHT22;9921;47.186;9.778;2023-03-15T10:33:25;23.20;49.60
19552;DHT22;9921;47.186;9.778;2023-03-15T10:35:53;23.70;49.00
19552;DHT22;9921;47.186;9.778;2023-03-15T10:38:22;24.70;49.20
19552;DHT22;9921;47.186;9.778;2023-03-15T10:40:52;25.70;49.20
19552;DHT22;9921;47.186;9.778;2023-03-15T10:43:21;26.40;41.30
19552;DHT22;9921;47.186;9.778;2023-03-15T10:45:58;26.20;40.70
19552;DHT22;9921;47.186;9.778;2023-03-15T10:48:26;26.60;39.40
19552;DHT22;9921;47.186;9.778;2023-03-15T10:50:53;26.30;39.00
19552;DHT22;9921;47.186;9.778;2023-03-15T10:53:20;25.70;39.40
19552;DHT22;9921;47.186;9.778;2023-03-15T10:55:58;24.00;39.70
19552;DHT22;9921;47.186;9.778;2023-03-15T10:58:27;23.30;40.40
19552;DHT22;9921;47.186;9.778;2023-03-15T11:00:59;24.00;42.80
19552;DHT22;9921;47.186;9.778;2023-03-15T11:03:27;24.00;38.60
19552;DHT22;9921;47.186;9.778;2023-03-15T11:05:57;24.80;39.20
19552;DHT22;9921;47.186;9.778;2023-03-15T11:08:34;26.20;38.30
19552;DHT22;9921;47.186;9.778;2023-03-15T11:11:03;27.50;39.90
19552;DHT22;9921;47.186;9.778;2023-03-15T11:13:32;28.70;38.90
19552;DHT22;9921;47.186;9.778;2023-03-15T11:16:02;29.30;35.10
19552;DHT22;9921;47.186;9.778;2023-03-15T11:18:33;30.00;36.00
19552;DHT22;9921;47.186;9.778;2023-03-15T11:21:03;30.20;34.40
19552;DHT22;9921;47.186;9.778;2023-03-15T11:23:34;30.60;34.40
19552;DHT22;9921;47.186;9.778;2023-03-15T11:26:04;29.40;31.50
19552;DHT22;9921;47.186;9.778;2023-03-15T11:28:33;29.50;34.70
19552;DHT22;9921;47.186;9.778;2023-03-15T11:31:02;30.10;31.90
19552;DHT22;9921;47.186;9.778;2023-03-15T11:33:36;26.60;34.60
19552;DHT22;9921;47.186;9.778;2023-03-15T11:36:06;24.80;36.10
19552;DHT22;9921;47.186;9.778;2023-03-15T11:38:36;24.80;34.50
19552;DHT22;9921;47.186;9.778;2023-03-15T11:41:24;24.40;35.90
19552;DHT22;9921;47.186;9.778;2023-03-15T11:44:02;25.80;36.20
19552;DHT22;9921;47.186;9.778;2023-03-15T11:46:34;26.50;35.80
19552;DHT22;9921;47.186;9.778;2023-03-15T11:49:11;27.10;33.60
19552;DHT22;9921;47.186;9.778;2023-03-15T11:51:39;25.60;35.60
19552;DHT22;9921;47.186;9.778;2023-03-15T11:54:11;22.90;36.90
19552;DHT22;9921;47.186;9.778;2023-03-15T11:56:50;22.10;38.80
19552;DHT22;9921;47.186;9.778;2023-03-15T11:59:24;23.90;36.80
19552;DHT22;9921;47.186;9.778;2023-03-15T12:01:55;22.40;36.70
19552;DHT22;9921;47.186;9.778;2023-03-15T12:04:35;22.10;38.20
19552;DHT22;9921;47.186;9.778;2023-03-15T12:07:07;22.10;38.80
19552;DHT22;9921;47.186;9.778;2023-03-15T12:09:40;22.70;36.90
19552;DHT22;9921;47.186;9.778;2023-03-15T12:12:34;24.30;39.30
19552;DHT22;9921;47.186;9.778;2023-03-15T12:15:04;26.30;37.00
19552;DHT22;9921;47.186;9.778;2023-03-15T12:17:42;28.10;36.50
19552;DHT22;9921;47.186;9.778;2023-03-15T12:20:19;28.90;35.50
19552;DHT22;9921;47.186;9.778;2023-03-15T12:22:50;30.00;33.20
19552;DHT22;9921;47.186;9.778;2023-03-15T12:25:20;30.50;33.00
19552;DHT22;9921;47.186;9.778;2023-03-15T12:27:51;31.00;33.90
19552;DHT22;9921;47.186;9.778;2023-03-15T12:30:21;31.70;32.20
19552;DHT22;9921;47.186;9.778;2023-03-15T12:32:51;30.30;30.70
19552;DHT22;9921;47.186;9.778;2023-03-15T12:35:22;30.00;30.00
19552;DHT22;9921;47.186;9.778;2023-03-15T12:37:51;30.10;31.00
19552;DHT22;9921;47.186;9.778;2023-03-15T12:40:39;29.90;28.90
19552;DHT22;9921;47.186;9.778;2023-03-15T12:43:11;29.80;30.00
19552;DHT22;9921;47.186;9.778;2023-03-15T12:45:48;29.90;30.80
19552;DHT22;9921;47.186;9.778;2023-03-15T12:48:23;30.30;32.10
19552;DHT22;9921;47.186;9.778;2023-03-15T12:51:04;30.20;32.40
19552;DHT22;9921;47.186;9.778;2023-03-15T12:53:46;30.50;32.10
19552;DHT22;9921;47.186;9.778;2023-03-15T12:56:42;29.80;29.00
19552;DHT22;9921;47.186;9.778;2023-03-15T12:59:22;28.00;32.70
19552;DHT22;9921;47.186;9.778;2023-03-15T13:01:52;26.00;32.90
19552;DHT22;9921;47.186;9.778;2023-03-15T13:04:20;23.30;34.30
19552;DHT22;9921;47.186;9.778;2023-03-15T13:10:11;20.90;40.20
19552;DHT22;9921;47.186;9.778;2023-03-15T13:12:46;20.40;40.00
19552;DHT22;9921;47.186;9.778;2023-03-15T13:15:20;21.40;39.70
19552;DHT22;9921;47.186;9.778;2023-03-15T13:17:50;21.50;39.40
19552;DHT22;9921;47.186;9.778;2023-03-15T13:20:29;22.20;38.90
19552;DHT22;9921;47.186;9.778;2023-03-15T13:23:08;23.20;37.70
19552;DHT22;9921;47.186;9.778;2023-03-15T13:25:45;24.30;39.60
19552;DHT22;9921;47.186;9.778;2023-03-15T13:28:20;23.60;33.80
19552;DHT22;9921;47.186;9.778;2023-03-15T13:30:50;22.50;35.60
19552;DHT22;9921;47.186;9.778;2023-03-15T13:33:20;21.60;35.30
19552;DHT22;9921;47.186;9.778;2023-03-15T13:35:53;21.20;36.80
19552;DHT22;9921;47.186;9.778;2023-03-15T13:38:26;21.00;36.40
19552;DHT22;9921;47.186;9.778;2023-03-15T13:40:56;21.30;35.00
19552;DHT22;9921;47.186;9.778;2023-03-15T13:43:25;21.50;37.40
19552;DHT22;9921;47.186;9.778;2023-03-15T13:45:56;20.50;37.00
19552;DHT22;9921;47.186;9.778;2023-03-15T13:48:24;19.50;37.20
19552;DHT22;9921;47.186;9.778;2023-03-15T13:50:51;20.50;38.80
19552;DHT22;9921;47.186;9.778;2023-03-15T13:53:23;22.10;36.20
19552;DHT22;9921;47.186;9.778;2023-03-15T13:55:52;23.40;33.80
19552;DHT22;9921;47.186;9.778;2023-03-15T13:58:21;24.20;37.30
19552;DHT22;9921;47.186;9.778;2023-03-15T14:00:57;24.80;37.60
19552;DHT22;9921;47.186;9.778;2023-03-15T14:03:24;23.60;36.60
19552;DHT22;9921;47.186;9.778;2023-03-15T14:05:53;22.00;38.00
19552;DHT22;9921;47.186;9.778;2023-03-15T14:08:23;21.60;38.60
19552;DHT22;9921;47.186;9.778;2023-03-15T14:11:03;20.70;38.10
19552;DHT22;9921;47.186;9.778;2023-03-15T14:13:31;19.70;40.70
19552;DHT22;9921;47.186;9.778;2023-03-15T14:16:02;18.40;42.20
19552;DHT22;9921;47.186;9.778;2023-03-15T14:18:33;17.10;44.00
19552;DHT22;9921;47.186;9.778;2023-03-15T14:21:02;16.50;46.00
19552;DHT22;9921;47.186;9.778;2023-03-15T14:23:34;15.80;47.20
19552;DHT22;9921;47.186;9.778;2023-03-15T14:26:11;15.50;46.20
19552;DHT22;9921;47.186;9.778;2023-03-15T14:28:39;15.40;47.60
19552;DHT22;9921;47.186;9.778;2023-03-15T14:31:20;15.10;47.20
19552;DHT22;9921;47.186;9.778;2023-03-15T14:33:51;15.60;49.20
19552;DHT22;9921;47.186;9.778;2023-03-15T14:36:24;16.70;46.30
19552;DHT22;9921;47.186;9.778;2023-03-15T14:38:57;18.50;42.40
19552;DHT22;9921;47.186;9.778;2023-03-15T14:41:29;20.30;42.20
19552;DHT22;9921;47.186;9.778;2023-03-15T14:43:58;21.70;39.20
19552;DHT22;9921;47.186;9.778;2023-03-15T14:46:27;21.80;40.80
19552;DHT22;9921;47.186;9.778;2023-03-15T14:48:54;21.20;37.70
19552;DHT22;9921;47.186;9.778;2023-03-15T14:51:21;20.00;35.90
19552;DHT22;9921;47.186;9.778;2023-03-15T14:53:51;19.00;39.00
19552;DHT22;9921;47.186;9.778;2023-03-15T14:56:19;18.40;40.40
19552;DHT22;9921;47.186;9.778;2023-03-15T14:58:46;18.80;41.30
19552;DHT22;9921;47.186;9.778;2023-03-15T15:01:16;19.80;41.20
19552;DHT22;9921;47.186;9.778;2023-03-15T15:03:47;20.90;39.90
19552;DHT22;9921;47.186;9.778;2023-03-15T15:06:16;21.60;39.40
19552;DHT22;9921;47.186;9.778;2023-03-15T15:08:44;22.00;37.70
19552;DHT22;9921;47.186;9.778;2023-03-15T15:11:12;22.00;36.70
19552;DHT22;9921;47.186;9.778;2023-03-15T15:13:40;22.30;38.00
19552;DHT22;9921;47.186;9.778;2023-03-15T15:16:07;22.70;35.60
19552;DHT22;9921;47.186;9.778;2023-03-15T15:18:35;22.60;37.50
19552;DHT22;9921;47.186;9.778;2023-03-15T15:21:11;21.80;36.30
19552;DHT22;9921;47.186;9.778;2023-03-15T15:23:40;20.50;39.00
19552;DHT22;9921;47.186;9.778;2023-03-15T15:26:13;19.30;38.50
19552;DHT22;9921;47.186;9.778;2023-03-15T15:28:42;18.50;42.30
19552;DHT22;9921;47.186;9.778;2023-03-15T15:31:12;18.00;42.10
19552;DHT22;9921;47.186;9.778;2023-03-15T15:33:39;17.50;42.60
19552;DHT22;9921;47.186;9.778;2023-03-15T15:36:12;17.10;44.60
19552;DHT22;9921;47.186;9.778;2023-03-15T15:38:39;16.20;42.50
19552;DHT22;9921;47.186;9.778;2023-03-15T15:41:13;15.80;45.40
19552;DHT22;9921;47.186;9.778;2023-03-15T15:43:41;15.40;47.70
19552;DHT22;9921;47.186;9.778;2023-03-15T15:46:09;15.00;49.70
19552;DHT22;9921;47.186;9.778;2023-03-15T15:48:37;14.70;50.60
19552;DHT22;9921;47.186;9.778;2023-03-15T15:51:20;14.30;51.70
19552;DHT22;9921;47.186;9.778;2023-03-15T15:53:48;14.30;51.40
19552;DHT22;9921;47.186;9.778;2023-03-15T15:56:15;14.30;48.70
19552;DHT22;9921;47.186;9.778;2023-03-15T15:58:43;14.40;46.90
19552;DHT22;9921;47.186;9.778;2023-03-15T16:01:12;14.50;46.90
19552;DHT22;9921;47.186;9.778;2023-03-15T16:03:40;14.60;50.20
19552;DHT22;9921;47.186;9.778;2023-03-15T16:06:14;14.50;46.90
19552;DHT22;9921;47.186;9.778;2023-03-15T16:08:43;14.40;46.60
19552;DHT22;9921;47.186;9.778;2023-03-15T16:11:12;14.60;48.20